Flight Briefing for CPX447

Departure Arrival
Salt Lake City International Airport (KSLC)
Click to view FAA NOTAMS
Minneapolis-St Paul International Airport (KMSP)
Click to view FAA NOTAMS
Departure Time Arrival Time
N/A N/A
Aircraft Distance
B757-200SF 860nm
Departure METAR Arrival METAR
KSLC 252254Z 14007KT 10SM SCT180 BKN240 16/M07 A3017 RMK AO2 SLP202 T01611067 KMSP 252253Z 32007KT 10SM FEW055 SCT250 08/M07 A3034 RMK AO2 SLP281 T00781067
Suggested Route
RUGGD1 OCS CKW MBW BFF ANW SSWAN TORGY3


View recent IFR Routes data
Notes



Charts and Procedures

Charts for KSLC
No chart available
Charts for KMSP
No chart available

Windy.com Weather Map